• Join FlightAware (Why Join?)
  • Login
  • US Flag 
10:15AM EST


 

Airport Tracker/Info


-or-


 

Live Flight TrackerFlight Track Log ✈ N770NC ✈ 18-Jun-2013 ✈ KSDF - KATL

Flight Track Log - Related Links

Times and Time Zones

All times are in EDT time to prevent confusion due to time zone crossing. See the N770NC flight status page for this flight to view local times or setup timezone preferences in your user account.

Time Position Orientation Groundspeed Altitude Reporting Facility
EDT Latitude Longitude Course Direction KTS MPH feet Rate Location/Type
02:13PM 38.0833 -85.7500 188° South 240 276 2,800  Level Louisville TRACON
02:14PM 38.0511 -85.8197 240° Southwest 255 293 4,600 1,680 Climbing Indianapolis Center
02:15PM 38.0094 -85.9031 238° Southwest 266 306 6,400 2,220 Climbing Indianapolis Center
02:16PM 37.9636 -85.9964 238° Southwest 296 341 9,200 2,460 Climbing Indianapolis Center
02:17PM 37.9203 -86.0875 239° Southwest 303 349 11,500 1,680 Climbing Indianapolis Center
02:18PM 37.2695 -86.3690 188° South  Level FlightAware Approximate
02:18PM 37.8350 -86.1342 203° Southwest 346 398 12,700  Level Indianapolis Center
02:19PM 37.7350 -86.1647 194° South 367 422 14,000 1,440 Climbing Indianapolis Center
02:20PM 37.6153 -86.1953 191° South 387 445 15,700 1,740 Climbing Indianapolis Center
02:21PM 37.5067 -86.2206 190° South 393 452 17,700 1,440 Climbing Indianapolis Center
02:22PM 37.3953 -86.2414 188° South 399 459 18,700 1,380 Climbing Indianapolis Center
02:23PM 37.2808 -86.2656 190° South 410 472 20,600 1,440 Climbing Indianapolis Center
02:24PM 37.1708 -86.3128 199° South 418 481 21,700 1,320 Climbing Indianapolis Center
02:25PM 37.0408 -86.3797 202° Southwest 425 489 23,400 1,320 Climbing Indianapolis Center
02:26PM 36.9322 -86.4394 204° Southwest 424 488 24,500 1,140 Climbing Indianapolis Center
02:27PM 36.8056 -86.4375 179° South 453 521 25,800 1,080 Climbing Indianapolis Center
02:28PM 36.6778 -86.4292 177° South 454 522 26,800 1,440 Climbing Indianapolis Center
02:29PM 36.5528 -86.4189 176° South 446 513 28,800 1,020 Climbing Indianapolis Center
02:30PM 36.4289 -86.4042 175° South 442 509 29,000 60 Climbing Indianapolis Center
02:31PM 36.2997 -86.3894 175° South 455 524 29,000  Level Indianapolis Center
02:32PM 36.1706 -86.3836 178° South 455 524 29,000  Level Indianapolis Center
02:33PM 36.0197 -86.3844 180° South 456 525 29,000  Level Memphis Center
02:34PM 35.8928 -86.3853 180° South 461 531 29,000  Level Memphis Center
02:36PM 35.6553 -86.3314 170° South 461 531 29,000  Level Atlanta Center
02:37PM 35.5442 -86.2389 146° Southeast 461 531 29,000 -120 Level Atlanta Center
02:38PM 35.4333 -86.1467 146° Southeast 470 541 28,800 -600 Descending Atlanta Center
02:39PM 35.3219 -86.0547 146° Southeast 481 554 27,900 -900 Descending Atlanta Center
02:40PM 35.2108 -85.9631 146° Southeast 481 554 27,000 -480 Descending Atlanta Center
02:41PM 35.1014 -85.8819 149° Southeast 475 547 27,000  Level Atlanta Center
02:42PM 34.9819 -85.7881 147° Southeast 486 559 27,000  Level Atlanta Center
02:43PM 34.8706 -85.6894 144° Southeast 496 571 27,000 -300 Level Atlanta Center
02:44PM 34.7719 -85.5661 134° Southeast 501 577 26,400 -840 Descending Atlanta Center
02:45PM 34.6775 -85.4481 134° Southeast 495 570 25,400 -1,020 Descending Atlanta Center
02:46PM 34.5847 -85.3281 133° Southeast 485 558 24,400 -1,500 Descending Atlanta Center
02:47PM 34.4961 -85.2133 133° Southeast 480 552 22,400 -2,580 Descending Atlanta Center
02:48PM 34.3842 -85.1261 147° Southeast 453 521 19,300 -3,060 Descending Atlanta Center
02:49PM 34.2806 -85.0569 151° Southeast 439 505 16,300 -2,520 Descending Atlanta Center
02:50PM 34.1742 -85.0456 175° South 401 461 14,300 -1,200 Descending Atlanta Center
02:51PM 34.0889 -85.0069 159° South 376 433 14,000 -180 Descending Atlanta Center
02:52PM 34.0183 -84.9411 142° Southeast 320 368 14,000 -180 Level Atlanta Center
02:53PM 33.9417 -84.8753 145° Southeast 333 383 13,700 -600 Descending Atlanta Center
02:54PM 33.8667 -84.8000 140° Southeast 331 381 12,700 -840 Descending Atlanta TRACON
02:55PM 33.8000 -84.7167 134° Southeast 321 369 12,000 -360 Descending Atlanta TRACON
02:56PM 33.7500 -84.6333 126° Southeast 323 372 12,000 -420 Level Atlanta TRACON
02:57PM 33.7333 -84.5333 101° East 338 389 11,200 -1,320 Descending Atlanta TRACON
02:58PM 33.7333 -84.4167 90° East 344 396 9,600 -1,740 Descending Atlanta TRACON
02:59PM 33.7333 -84.3167 90° East 321 369 7,900 -1,980 Descending Atlanta TRACON
03:00PM 33.7333 -84.2167 90° East 310 357 5,700 -1,440 Descending Atlanta TRACON
03:01PM 33.7333 -84.1000 90° East 291 335 5,000 -300 Descending Atlanta TRACON
03:02PM 33.7333 -84.0333 90° East 235 270 5,100  Climbing Atlanta TRACON
03:03PM 33.6833 -84.0167 164° South 218 251 5,000  Descending Atlanta TRACON
03:04PM 33.6500 -84.0667 231° Southwest 173 199 5,100  Climbing Atlanta TRACON
03:05PM 33.6500 -84.1167 270° West 172 198 5,000 -120 Descending Atlanta TRACON
03:06PM 33.6500 -84.1667 270° West 183 211 4,900 -600 Descending Atlanta TRACON
03:07PM 33.6500 -84.2333 270° West 178 205 3,900 -1,020 Descending Atlanta TRACON